sensor_id;sensor_type;location;lat;lon;timestamp;P1;durP1;ratioP1;P2;durP2;ratioP2
34236;SDS011;20501;45.956;13.632;2024-01-16T00:02:19;85.20;;;40.75;;
34236;SDS011;20501;45.956;13.632;2024-01-16T00:04:44;84.05;;;40.28;;
34236;SDS011;20501;45.956;13.632;2024-01-16T00:07:10;80.25;;;38.58;;
34236;SDS011;20501;45.956;13.632;2024-01-16T00:09:35;92.00;;;41.87;;
34236;SDS011;20501;45.956;13.632;2024-01-16T00:12:04;101.45;;;46.17;;
34236;SDS011;20501;45.956;13.632;2024-01-16T00:14:30;99.18;;;44.97;;
34236;SDS011;20501;45.956;13.632;2024-01-16T00:16:55;90.28;;;43.60;;
34236;SDS011;20501;45.956;13.632;2024-01-16T00:19:21;90.43;;;42.42;;
34236;SDS011;20501;45.956;13.632;2024-01-16T00:21:46;87.97;;;41.08;;
34236;SDS011;20501;45.956;13.632;2024-01-16T00:24:12;83.75;;;39.88;;
34236;SDS011;20501;45.956;13.632;2024-01-16T00:26:40;86.90;;;38.60;;
34236;SDS011;20501;45.956;13.632;2024-01-16T00:29:06;78.00;;;38.03;;
34236;SDS011;20501;45.956;13.632;2024-01-16T00:31:31;75.03;;;36.08;;
34236;SDS011;20501;45.956;13.632;2024-01-16T00:33:57;72.20;;;36.45;;
34236;SDS011;20501;45.956;13.632;2024-01-16T00:36:22;81.32;;;38.30;;
34236;SDS011;20501;45.956;13.632;2024-01-16T00:38:48;71.68;;;35.53;;
34236;SDS011;20501;45.956;13.632;2024-01-16T00:41:13;71.22;;;32.65;;
34236;SDS011;20501;45.956;13.632;2024-01-16T00:43:45;60.13;;;31.20;;
34236;SDS011;20501;45.956;13.632;2024-01-16T00:46:10;54.58;;;29.05;;
34236;SDS011;20501;45.956;13.632;2024-01-16T00:48:36;63.83;;;30.63;;
34236;SDS011;20501;45.956;13.632;2024-01-16T00:51:01;64.47;;;30.30;;
34236;SDS011;20501;45.956;13.632;2024-01-16T00:53:27;55.33;;;27.67;;
34236;SDS011;20501;45.956;13.632;2024-01-16T00:55:52;53.15;;;27.83;;
34236;SDS011;20501;45.956;13.632;2024-01-16T00:58:22;46.50;;;26.67;;
34236;SDS011;20501;45.956;13.632;2024-01-16T01:00:48;54.70;;;26.58;;
34236;SDS011;20501;45.956;13.632;2024-01-16T01:03:14;53.15;;;27.55;;
34236;SDS011;20501;45.956;13.632;2024-01-16T01:05:39;52.03;;;27.52;;
34236;SDS011;20501;45.956;13.632;2024-01-16T01:08:05;50.97;;;26.17;;
34236;SDS011;20501;45.956;13.632;2024-01-16T01:10:30;52.90;;;25.88;;
34236;SDS011;20501;45.956;13.632;2024-01-16T01:12:56;44.92;;;23.58;;
34236;SDS011;20501;45.956;13.632;2024-01-16T01:15:21;46.42;;;22.85;;
34236;SDS011;20501;45.956;13.632;2024-01-16T01:17:50;49.67;;;22.95;;
34236;SDS011;20501;45.956;13.632;2024-01-16T01:20:17;42.53;;;21.38;;
34236;SDS011;20501;45.956;13.632;2024-01-16T01:22:43;41.50;;;21.77;;
34236;SDS011;20501;45.956;13.632;2024-01-16T01:25:09;47.10;;;23.70;;
34236;SDS011;20501;45.956;13.632;2024-01-16T01:30:02;44.58;;;21.63;;
34236;SDS011;20501;45.956;13.632;2024-01-16T01:32:28;44.50;;;23.55;;
34236;SDS011;20501;45.956;13.632;2024-01-16T01:34:54;41.10;;;21.77;;
34236;SDS011;20501;45.956;13.632;2024-01-16T01:37:19;44.38;;;21.80;;
34236;SDS011;20501;45.956;13.632;2024-01-16T01:39:45;42.38;;;21.85;;
34236;SDS011;20501;45.956;13.632;2024-01-16T01:42:10;38.95;;;20.15;;
34236;SDS011;20501;45.956;13.632;2024-01-16T01:44:36;45.95;;;20.15;;
34236;SDS011;20501;45.956;13.632;2024-01-16T01:47:01;40.17;;;20.08;;
34236;SDS011;20501;45.956;13.632;2024-01-16T01:49:27;40.87;;;21.80;;
34236;SDS011;20501;45.956;13.632;2024-01-16T01:51:53;44.08;;;22.85;;
34236;SDS011;20501;45.956;13.632;2024-01-16T01:56:47;42.35;;;19.85;;
34236;SDS011;20501;45.956;13.632;2024-01-16T01:59:17;37.30;;;19.80;;
34236;SDS011;20501;45.956;13.632;2024-01-16T02:01:44;36.40;;;19.88;;
34236;SDS011;20501;45.956;13.632;2024-01-16T02:04:12;37.58;;;19.98;;
34236;SDS011;20501;45.956;13.632;2024-01-16T02:06:41;37.53;;;18.65;;
34236;SDS011;20501;45.956;13.632;2024-01-16T02:11:33;34.70;;;17.75;;
34236;SDS011;20501;45.956;13.632;2024-01-16T02:13:58;28.63;;;15.93;;
34236;SDS011;20501;45.956;13.632;2024-01-16T02:16:23;35.30;;;18.13;;
34236;SDS011;20501;45.956;13.632;2024-01-16T02:18:49;30.92;;;15.98;;
34236;SDS011;20501;45.956;13.632;2024-01-16T02:21:22;31.95;;;16.40;;
34236;SDS011;20501;45.956;13.632;2024-01-16T02:23:53;30.33;;;16.13;;
34236;SDS011;20501;45.956;13.632;2024-01-16T02:26:18;29.88;;;15.75;;
34236;SDS011;20501;45.956;13.632;2024-01-16T02:28:44;26.08;;;13.88;;
34236;SDS011;20501;45.956;13.632;2024-01-16T02:31:10;32.70;;;16.25;;
34236;SDS011;20501;45.956;13.632;2024-01-16T02:33:35;25.13;;;14.70;;
34236;SDS011;20501;45.956;13.632;2024-01-16T02:36:01;25.95;;;14.45;;
34236;SDS011;20501;45.956;13.632;2024-01-16T02:38:27;28.00;;;14.30;;
34236;SDS011;20501;45.956;13.632;2024-01-16T02:40:52;30.20;;;14.38;;
34236;SDS011;20501;45.956;13.632;2024-01-16T02:43:17;26.83;;;13.90;;
34236;SDS011;20501;45.956;13.632;2024-01-16T02:45:43;28.25;;;15.25;;
34236;SDS011;20501;45.956;13.632;2024-01-16T02:48:08;24.87;;;14.27;;
34236;SDS011;20501;45.956;13.632;2024-01-16T02:50:34;29.42;;;15.68;;
34236;SDS011;20501;45.956;13.632;2024-01-16T02:52:59;27.15;;;13.38;;
34236;SDS011;20501;45.956;13.632;2024-01-16T02:55:25;26.73;;;14.43;;
34236;SDS011;20501;45.956;13.632;2024-01-16T02:57:50;25.85;;;12.52;;
34236;SDS011;20501;45.956;13.632;2024-01-16T03:00:16;23.55;;;13.18;;
34236;SDS011;20501;45.956;13.632;2024-01-16T03:02:42;22.35;;;12.48;;
34236;SDS011;20501;45.956;13.632;2024-01-16T03:05:09;20.15;;;10.90;;
34236;SDS011;20501;45.956;13.632;2024-01-16T03:07:35;21.00;;;10.65;;
34236;SDS011;20501;45.956;13.632;2024-01-16T03:10:01;17.95;;;10.13;;
34236;SDS011;20501;45.956;13.632;2024-01-16T03:12:27;17.55;;;9.85;;
34236;SDS011;20501;45.956;13.632;2024-01-16T03:14:52;20.27;;;10.63;;
34236;SDS011;20501;45.956;13.632;2024-01-16T03:17:18;19.08;;;10.15;;
34236;SDS011;20501;45.956;13.632;2024-01-16T03:19:44;16.95;;;8.30;;
34236;SDS011;20501;45.956;13.632;2024-01-16T03:22:09;16.30;;;9.13;;
34236;SDS011;20501;45.956;13.632;2024-01-16T03:24:35;13.32;;;8.05;;
34236;SDS011;20501;45.956;13.632;2024-01-16T03:27:00;17.45;;;9.32;;
34236;SDS011;20501;45.956;13.632;2024-01-16T03:29:26;14.18;;;8.23;;
34236;SDS011;20501;45.956;13.632;2024-01-16T03:31:51;14.87;;;8.20;;
34236;SDS011;20501;45.956;13.632;2024-01-16T03:34:18;12.32;;;7.40;;
34236;SDS011;20501;45.956;13.632;2024-01-16T03:36:43;18.30;;;8.87;;
34236;SDS011;20501;45.956;13.632;2024-01-16T03:39:09;13.98;;;7.95;;
34236;SDS011;20501;45.956;13.632;2024-01-16T03:41:34;14.05;;;7.63;;
34236;SDS011;20501;45.956;13.632;2024-01-16T03:43:59;11.47;;;7.57;;
34236;SDS011;20501;45.956;13.632;2024-01-16T03:46:25;14.15;;;7.43;;
34236;SDS011;20501;45.956;13.632;2024-01-16T03:48:50;10.13;;;6.65;;
34236;SDS011;20501;45.956;13.632;2024-01-16T03:51:16;12.38;;;7.13;;
34236;SDS011;20501;45.956;13.632;2024-01-16T03:53:43;11.45;;;7.35;;
34236;SDS011;20501;45.956;13.632;2024-01-16T03:56:08;14.77;;;8.65;;
34236;SDS011;20501;45.956;13.632;2024-01-16T03:58:33;17.97;;;7.67;;
34236;SDS011;20501;45.956;13.632;2024-01-16T04:00:59;15.10;;;7.97;;
34236;SDS011;20501;45.956;13.632;2024-01-16T04:03:24;17.65;;;8.60;;
34236;SDS011;20501;45.956;13.632;2024-01-16T04:05:50;15.97;;;8.73;;
34236;SDS011;20501;45.956;13.632;2024-01-16T04:08:15;10.57;;;6.75;;
34236;SDS011;20501;45.956;13.632;2024-01-16T04:10:41;13.70;;;6.90;;
34236;SDS011;20501;45.956;13.632;2024-01-16T04:13:07;13.18;;;7.15;;
34236;SDS011;20501;45.956;13.632;2024-01-16T04:15:33;12.43;;;7.33;;
34236;SDS011;20501;45.956;13.632;2024-01-16T04:17:59;13.43;;;7.70;;
34236;SDS011;20501;45.956;13.632;2024-01-16T04:20:24;11.47;;;6.73;;
34236;SDS011;20501;45.956;13.632;2024-01-16T04:22:50;13.40;;;7.23;;
34236;SDS011;20501;45.956;13.632;2024-01-16T04:25:16;12.13;;;7.22;;
34236;SDS011;20501;45.956;13.632;2024-01-16T04:27:41;16.30;;;7.53;;
34236;SDS011;20501;45.956;13.632;2024-01-16T04:30:07;10.37;;;6.70;;
34236;SDS011;20501;45.956;13.632;2024-01-16T04:32:33;13.20;;;6.68;;
34236;SDS011;20501;45.956;13.632;2024-01-16T04:34:58;11.00;;;7.17;;
34236;SDS011;20501;45.956;13.632;2024-01-16T04:37:24;13.60;;;7.37;;
34236;SDS011;20501;45.956;13.632;2024-01-16T04:39:49;12.23;;;7.10;;
34236;SDS011;20501;45.956;13.632;2024-01-16T04:42:14;10.70;;;6.30;;
34236;SDS011;20501;45.956;13.632;2024-01-16T04:44:42;10.82;;;6.75;;
34236;SDS011;20501;45.956;13.632;2024-01-16T04:47:09;10.00;;;6.10;;
34236;SDS011;20501;45.956;13.632;2024-01-16T04:49:36;7.47;;;4.45;;
34236;SDS011;20501;45.956;13.632;2024-01-16T04:52:02;11.37;;;5.53;;
34236;SDS011;20501;45.956;13.632;2024-01-16T04:54:28;5.50;;;4.13;;
34236;SDS011;20501;45.956;13.632;2024-01-16T04:56:53;7.43;;;4.25;;
34236;SDS011;20501;45.956;13.632;2024-01-16T04:59:19;6.30;;;3.80;;
34236;SDS011;20501;45.956;13.632;2024-01-16T05:01:45;5.95;;;4.03;;
34236;SDS011;20501;45.956;13.632;2024-01-16T05:04:10;8.27;;;3.57;;
34236;SDS011;20501;45.956;13.632;2024-01-16T05:06:36;7.15;;;3.78;;
34236;SDS011;20501;45.956;13.632;2024-01-16T05:09:01;5.50;;;3.47;;
34236;SDS011;20501;45.956;13.632;2024-01-16T05:11:28;8.93;;;3.60;;
34236;SDS011;20501;45.956;13.632;2024-01-16T05:13:53;4.17;;;2.73;;
34236;SDS011;20501;45.956;13.632;2024-01-16T05:16:25;3.53;;;2.70;;
34236;SDS011;20501;45.956;13.632;2024-01-16T05:18:51;5.53;;;3.05;;
34236;SDS011;20501;45.956;13.632;2024-01-16T05:21:17;4.50;;;3.00;;
34236;SDS011;20501;45.956;13.632;2024-01-16T05:23:42;6.17;;;3.07;;
34236;SDS011;20501;45.956;13.632;2024-01-16T05:26:08;7.95;;;2.60;;
34236;SDS011;20501;45.956;13.632;2024-01-16T05:28:33;4.15;;;2.80;;
34236;SDS011;20501;45.956;13.632;2024-01-16T05:30:59;5.65;;;2.85;;
34236;SDS011;20501;45.956;13.632;2024-01-16T05:33:25;4.43;;;3.13;;
34236;SDS011;20501;45.956;13.632;2024-01-16T05:35:50;5.78;;;2.75;;
34236;SDS011;20501;45.956;13.632;2024-01-16T05:38:16;6.25;;;2.67;;
34236;SDS011;20501;45.956;13.632;2024-01-16T05:40:41;6.68;;;2.55;;
34236;SDS011;20501;45.956;13.632;2024-01-16T05:43:07;5.15;;;3.28;;
34236;SDS011;20501;45.956;13.632;2024-01-16T05:45:32;7.53;;;3.75;;
34236;SDS011;20501;45.956;13.632;2024-01-16T05:47:58;6.57;;;3.63;;
34236;SDS011;20501;45.956;13.632;2024-01-16T05:50:23;5.07;;;3.33;;
34236;SDS011;20501;45.956;13.632;2024-01-16T05:52:49;5.93;;;3.30;;
34236;SDS011;20501;45.956;13.632;2024-01-16T05:55:14;8.48;;;4.70;;
34236;SDS011;20501;45.956;13.632;2024-01-16T05:57:40;6.32;;;3.92;;
34236;SDS011;20501;45.956;13.632;2024-01-16T06:00:06;9.77;;;4.80;;
34236;SDS011;20501;45.956;13.632;2024-01-16T06:02:32;7.77;;;4.37;;
34236;SDS011;20501;45.956;13.632;2024-01-16T06:04:57;15.43;;;5.63;;
34236;SDS011;20501;45.956;13.632;2024-01-16T06:07:23;9.07;;;5.57;;
34236;SDS011;20501;45.956;13.632;2024-01-16T06:09:48;6.65;;;4.35;;
34236;SDS011;20501;45.956;13.632;2024-01-16T06:12:13;7.40;;;4.45;;
34236;SDS011;20501;45.956;13.632;2024-01-16T06:14:39;22.95;;;14.90;;
34236;SDS011;20501;45.956;13.632;2024-01-16T06:17:05;11.30;;;6.30;;
34236;SDS011;20501;45.956;13.632;2024-01-16T06:19:31;11.38;;;5.53;;
34236;SDS011;20501;45.956;13.632;2024-01-16T06:21:58;14.47;;;7.07;;
34236;SDS011;20501;45.956;13.632;2024-01-16T06:24:24;13.85;;;6.72;;
34236;SDS011;20501;45.956;13.632;2024-01-16T06:26:49;16.38;;;7.00;;
34236;SDS011;20501;45.956;13.632;2024-01-16T06:29:14;16.73;;;6.65;;
34236;SDS011;20501;45.956;13.632;2024-01-16T06:31:40;14.90;;;7.97;;
34236;SDS011;20501;45.956;13.632;2024-01-16T06:34:05;13.70;;;7.00;;
34236;SDS011;20501;45.956;13.632;2024-01-16T06:36:31;18.00;;;8.13;;
34236;SDS011;20501;45.956;13.632;2024-01-16T06:38:56;16.75;;;9.18;;
34236;SDS011;20501;45.956;13.632;2024-01-16T06:41:22;28.33;;;12.20;;
34236;SDS011;20501;45.956;13.632;2024-01-16T06:43:47;19.13;;;11.07;;
34236;SDS011;20501;45.956;13.632;2024-01-16T06:46:13;18.35;;;9.95;;
34236;SDS011;20501;45.956;13.632;2024-01-16T06:48:38;15.02;;;8.88;;
34236;SDS011;20501;45.956;13.632;2024-01-16T06:51:04;19.67;;;9.93;;
34236;SDS011;20501;45.956;13.632;2024-01-16T06:53:30;17.60;;;10.00;;
34236;SDS011;20501;45.956;13.632;2024-01-16T06:55:55;22.73;;;9.90;;
34236;SDS011;20501;45.956;13.632;2024-01-16T06:58:21;19.77;;;10.75;;
34236;SDS011;20501;45.956;13.632;2024-01-16T07:00:47;21.43;;;10.37;;
34236;SDS011;20501;45.956;13.632;2024-01-16T07:03:13;22.67;;;11.82;;
34236;SDS011;20501;45.956;13.632;2024-01-16T07:05:39;19.10;;;10.60;;
34236;SDS011;20501;45.956;13.632;2024-01-16T07:10:31;22.05;;;11.27;;
34236;SDS011;20501;45.956;13.632;2024-01-16T07:12:57;17.35;;;10.65;;
34236;SDS011;20501;45.956;13.632;2024-01-16T07:15:22;19.67;;;10.53;;
34236;SDS011;20501;45.956;13.632;2024-01-16T07:17:48;19.83;;;11.15;;
34236;SDS011;20501;45.956;13.632;2024-01-16T07:20:13;27.07;;;11.57;;
34236;SDS011;20501;45.956;13.632;2024-01-16T07:22:39;21.85;;;11.15;;
34236;SDS011;20501;45.956;13.632;2024-01-16T07:25:05;20.90;;;10.60;;
34236;SDS011;20501;45.956;13.632;2024-01-16T07:27:31;20.50;;;11.73;;
34236;SDS011;20501;45.956;13.632;2024-01-16T07:29:56;21.10;;;11.30;;
34236;SDS011;20501;45.956;13.632;2024-01-16T07:32:22;24.80;;;10.57;;
34236;SDS011;20501;45.956;13.632;2024-01-16T07:34:47;24.80;;;10.57;;
34236;SDS011;20501;45.956;13.632;2024-01-16T07:37:13;26.13;;;11.60;;
34236;SDS011;20501;45.956;13.632;2024-01-16T07:39:38;15.43;;;8.82;;
34236;SDS011;20501;45.956;13.632;2024-01-16T07:42:04;21.63;;;9.70;;
34236;SDS011;20501;45.956;13.632;2024-01-16T07:44:29;16.05;;;9.38;;
34236;SDS011;20501;45.956;13.632;2024-01-16T07:46:55;33.80;;;14.88;;
34236;SDS011;20501;45.956;13.632;2024-01-16T07:49:20;16.05;;;8.70;;
34236;SDS011;20501;45.956;13.632;2024-01-16T07:51:46;18.77;;;8.43;;
34236;SDS011;20501;45.956;13.632;2024-01-16T07:54:11;16.67;;;7.55;;
34236;SDS011;20501;45.956;13.632;2024-01-16T07:59:03;18.23;;;9.25;;
34236;SDS011;20501;45.956;13.632;2024-01-16T08:01:29;19.23;;;9.07;;
34236;SDS011;20501;45.956;13.632;2024-01-16T08:03:55;20.75;;;8.65;;
34236;SDS011;20501;45.956;13.632;2024-01-16T08:06:21;17.20;;;9.03;;
34236;SDS011;20501;45.956;13.632;2024-01-16T08:08:47;18.33;;;10.47;;
34236;SDS011;20501;45.956;13.632;2024-01-16T08:11:13;22.45;;;10.40;;
34236;SDS011;20501;45.956;13.632;2024-01-16T08:13:39;29.75;;;17.23;;
34236;SDS011;20501;45.956;13.632;2024-01-16T08:16:04;38.17;;;16.88;;
34236;SDS011;20501;45.956;13.632;2024-01-16T08:18:30;33.47;;;13.57;;
34236;SDS011;20501;45.956;13.632;2024-01-16T08:20:56;19.52;;;11.10;;
34236;SDS011;20501;45.956;13.632;2024-01-16T08:23:22;25.15;;;13.35;;
34236;SDS011;20501;45.956;13.632;2024-01-16T08:25:48;17.02;;;9.88;;
34236;SDS011;20501;45.956;13.632;2024-01-16T08:28:14;17.52;;;8.50;;
34236;SDS011;20501;45.956;13.632;2024-01-16T08:30:40;17.05;;;9.00;;
34236;SDS011;20501;45.956;13.632;2024-01-16T08:33:06;11.90;;;6.97;;
34236;SDS011;20501;45.956;13.632;2024-01-16T08:35:32;13.68;;;7.25;;
34236;SDS011;20501;45.956;13.632;2024-01-16T08:37:58;16.38;;;8.15;;
34236;SDS011;20501;45.956;13.632;2024-01-16T08:40:23;17.23;;;8.27;;
34236;SDS011;20501;45.956;13.632;2024-01-16T08:42:49;10.10;;;6.15;;
34236;SDS011;20501;45.956;13.632;2024-01-16T08:45:19;11.75;;;6.43;;
34236;SDS011;20501;45.956;13.632;2024-01-16T08:47:48;13.23;;;6.65;;
34236;SDS011;20501;45.956;13.632;2024-01-16T08:50:14;13.27;;;6.07;;
34236;SDS011;20501;45.956;13.632;2024-01-16T08:52:40;9.10;;;6.43;;
34236;SDS011;20501;45.956;13.632;2024-01-16T08:55:05;11.18;;;6.70;;
34236;SDS011;20501;45.956;13.632;2024-01-16T08:57:31;13.65;;;7.43;;
34236;SDS011;20501;45.956;13.632;2024-01-16T08:59:56;20.95;;;8.30;;
34236;SDS011;20501;45.956;13.632;2024-01-16T09:02:22;10.57;;;4.78;;
34236;SDS011;20501;45.956;13.632;2024-01-16T09:04:49;7.53;;;4.43;;
34236;SDS011;20501;45.956;13.632;2024-01-16T09:07:15;7.87;;;4.20;;
34236;SDS011;20501;45.956;13.632;2024-01-16T09:09:41;5.93;;;3.38;;
34236;SDS011;20501;45.956;13.632;2024-01-16T09:12:08;5.85;;;3.65;;
34236;SDS011;20501;45.956;13.632;2024-01-16T09:14:34;4.93;;;2.85;;
34236;SDS011;20501;45.956;13.632;2024-01-16T09:16:59;5.93;;;3.03;;
34236;SDS011;20501;45.956;13.632;2024-01-16T09:19:24;6.97;;;2.60;;
34236;SDS011;20501;45.956;13.632;2024-01-16T09:21:50;5.55;;;2.63;;
34236;SDS011;20501;45.956;13.632;2024-01-16T09:24:15;4.47;;;3.17;;
34236;SDS011;20501;45.956;13.632;2024-01-16T09:26:41;3.78;;;2.78;;
34236;SDS011;20501;45.956;13.632;2024-01-16T09:29:07;9.55;;;2.58;;
34236;SDS011;20501;45.956;13.632;2024-01-16T09:31:34;5.90;;;2.88;;
34236;SDS011;20501;45.956;13.632;2024-01-16T09:34:00;8.00;;;3.00;;
34236;SDS011;20501;45.956;13.632;2024-01-16T09:36:26;5.28;;;3.13;;
34236;SDS011;20501;45.956;13.632;2024-01-16T09:38:51;11.10;;;3.20;;
34236;SDS011;20501;45.956;13.632;2024-01-16T09:41:17;6.70;;;2.70;;
34236;SDS011;20501;45.956;13.632;2024-01-16T09:43:42;4.13;;;2.85;;
34236;SDS011;20501;45.956;13.632;2024-01-16T09:46:09;4.05;;;2.40;;
34236;SDS011;20501;45.956;13.632;2024-01-16T09:48:36;5.45;;;2.88;;
34236;SDS011;20501;45.956;13.632;2024-01-16T09:51:02;5.78;;;2.72;;
34236;SDS011;20501;45.956;13.632;2024-01-16T09:53:28;5.75;;;2.70;;
34236;SDS011;20501;45.956;13.632;2024-01-16T09:55:54;3.92;;;2.80;;
34236;SDS011;20501;45.956;13.632;2024-01-16T09:58:34;2.67;;;2.15;;
34236;SDS011;20501;45.956;13.632;2024-01-16T10:01:02;6.15;;;3.03;;
34236;SDS011;20501;45.956;13.632;2024-01-16T10:03:27;6.60;;;2.85;;
34236;SDS011;20501;45.956;13.632;2024-01-16T10:05:56;16.98;;;3.33;;
34236;SDS011;20501;45.956;13.632;2024-01-16T10:08:21;5.13;;;2.53;;
34236;SDS011;20501;45.956;13.632;2024-01-16T10:10:47;3.70;;;2.08;;
34236;SDS011;20501;45.956;13.632;2024-01-16T10:13:13;4.10;;;2.35;;
34236;SDS011;20501;45.956;13.632;2024-01-16T10:15:39;3.03;;;2.20;;
34236;SDS011;20501;45.956;13.632;2024-01-16T10:18:05;6.18;;;2.60;;
34236;SDS011;20501;45.956;13.632;2024-01-16T10:20:46;5.35;;;2.78;;
34236;SDS011;20501;45.956;13.632;2024-01-16T10:23:11;3.65;;;2.88;;
34236;SDS011;20501;45.956;13.632;2024-01-16T10:25:59;5.75;;;2.58;;
34236;SDS011;20501;45.956;13.632;2024-01-16T10:28:32;5.35;;;2.70;;
34236;SDS011;20501;45.956;13.632;2024-01-16T10:31:02;3.63;;;2.33;;
34236;SDS011;20501;45.956;13.632;2024-01-16T10:33:39;7.38;;;2.58;;
34236;SDS011;20501;45.956;13.632;2024-01-16T10:36:09;6.17;;;3.57;;
34236;SDS011;20501;45.956;13.632;2024-01-16T10:38:41;4.07;;;2.30;;
34236;SDS011;20501;45.956;13.632;2024-01-16T10:43:34;4.87;;;2.87;;
34236;SDS011;20501;45.956;13.632;2024-01-16T10:46:08;3.45;;;2.50;;
34236;SDS011;20501;45.956;13.632;2024-01-16T10:48:36;2.80;;;2.10;;
34236;SDS011;20501;45.956;13.632;2024-01-16T10:51:03;7.13;;;2.45;;
34236;SDS011;20501;45.956;13.632;2024-01-16T10:53:32;4.60;;;2.30;;
34236;SDS011;20501;45.956;13.632;2024-01-16T10:55:59;4.40;;;2.42;;
34236;SDS011;20501;45.956;13.632;2024-01-16T10:58:29;3.13;;;2.42;;
34236;SDS011;20501;45.956;13.632;2024-01-16T11:00:57;4.28;;;2.22;;
34236;SDS011;20501;45.956;13.632;2024-01-16T11:03:35;5.78;;;2.42;;
34236;SDS011;20501;45.956;13.632;2024-01-16T11:06:04;3.33;;;2.50;;
34236;SDS011;20501;45.956;13.632;2024-01-16T11:08:33;7.75;;;2.38;;
34236;SDS011;20501;45.956;13.632;2024-01-16T11:11:01;2.97;;;2.15;;
34236;SDS011;20501;45.956;13.632;2024-01-16T11:13:29;3.15;;;2.10;;
34236;SDS011;20501;45.956;13.632;2024-01-16T11:15:57;2.80;;;2.05;;
34236;SDS011;20501;45.956;13.632;2024-01-16T11:18:24;3.88;;;2.33;;
34236;SDS011;20501;45.956;13.632;2024-01-16T11:20:51;3.70;;;2.40;;
34236;SDS011;20501;45.956;13.632;2024-01-16T11:23:17;3.88;;;2.60;;
34236;SDS011;20501;45.956;13.632;2024-01-16T11:25:43;2.60;;;1.88;;
34236;SDS011;20501;45.956;13.632;2024-01-16T11:28:09;2.65;;;2.15;;
34236;SDS011;20501;45.956;13.632;2024-01-16T11:30:39;2.90;;;2.30;;
34236;SDS011;20501;45.956;13.632;2024-01-16T11:33:05;5.13;;;2.63;;
34236;SDS011;20501;45.956;13.632;2024-01-16T11:35:40;5.70;;;2.10;;
34236;SDS011;20501;45.956;13.632;2024-01-16T11:38:18;4.82;;;2.38;;
34236;SDS011;20501;45.956;13.632;2024-01-16T11:40:46;4.35;;;2.42;;
34236;SDS011;20501;45.956;13.632;2024-01-16T11:45:56;3.55;;;2.33;;
34236;SDS011;20501;45.956;13.632;2024-01-16T11:48:23;5.07;;;2.42;;
34236;SDS011;20501;45.956;13.632;2024-01-16T11:50:49;3.47;;;2.40;;
34236;SDS011;20501;45.956;13.632;2024-01-16T11:59:06;3.85;;;2.50;;
34236;SDS011;20501;45.956;13.632;2024-01-16T12:01:34;3.47;;;2.40;;
34236;SDS011;20501;45.956;13.632;2024-01-16T12:04:07;4.13;;;2.40;;
34236;SDS011;20501;45.956;13.632;2024-01-16T12:06:34;4.35;;;2.38;;
34236;SDS011;20501;45.956;13.632;2024-01-16T12:09:14;4.55;;;2.85;;
34236;SDS011;20501;45.956;13.632;2024-01-16T12:11:42;14.88;;;2.97;;
34236;SDS011;20501;45.956;13.632;2024-01-16T12:14:10;5.88;;;2.97;;
34236;SDS011;20501;45.956;13.632;2024-01-16T12:16:37;8.13;;;4.00;;
34236;SDS011;20501;45.956;13.632;2024-01-16T12:19:06;4.03;;;2.78;;
34236;SDS011;20501;45.956;13.632;2024-01-16T12:21:39;7.78;;;2.75;;
34236;SDS011;20501;45.956;13.632;2024-01-16T12:24:05;6.45;;;2.47;;
34236;SDS011;20501;45.956;13.632;2024-01-16T12:26:31;3.00;;;2.23;;
34236;SDS011;20501;45.956;13.632;2024-01-16T12:28:57;4.20;;;2.92;;
34236;SDS011;20501;45.956;13.632;2024-01-16T12:31:23;6.40;;;2.70;;
34236;SDS011;20501;45.956;13.632;2024-01-16T12:33:50;7.68;;;2.15;;
34236;SDS011;20501;45.956;13.632;2024-01-16T12:38:41;7.70;;;2.35;;
34236;SDS011;20501;45.956;13.632;2024-01-16T12:41:08;3.90;;;2.17;;
34236;SDS011;20501;45.956;13.632;2024-01-16T12:43:35;5.90;;;4.18;;
34236;SDS011;20501;45.956;13.632;2024-01-16T12:46:04;2.60;;;1.90;;
34236;SDS011;20501;45.956;13.632;2024-01-16T12:48:31;8.13;;;2.70;;
34236;SDS011;20501;45.956;13.632;2024-01-16T12:51:03;3.38;;;1.80;;
34236;SDS011;20501;45.956;13.632;2024-01-16T12:53:29;5.15;;;2.47;;
34236;SDS011;20501;45.956;13.632;2024-01-16T12:56:00;4.38;;;2.20;;
34236;SDS011;20501;45.956;13.632;2024-01-16T12:58:32;3.33;;;2.20;;
34236;SDS011;20501;45.956;13.632;2024-01-16T13:01:20;5.63;;;2.38;;
34236;SDS011;20501;45.956;13.632;2024-01-16T13:03:48;4.97;;;2.30;;
34236;SDS011;20501;45.956;13.632;2024-01-16T13:06:18;6.30;;;2.22;;
34236;SDS011;20501;45.956;13.632;2024-01-16T13:08:45;4.32;;;2.03;;
34236;SDS011;20501;45.956;13.632;2024-01-16T13:11:14;4.95;;;2.42;;
34236;SDS011;20501;45.956;13.632;2024-01-16T13:13:46;22.20;;;2.72;;
34236;SDS011;20501;45.956;13.632;2024-01-16T13:16:16;2.55;;;1.55;;
34236;SDS011;20501;45.956;13.632;2024-01-16T13:18:42;2.87;;;1.87;;
34236;SDS011;20501;45.956;13.632;2024-01-16T13:21:08;3.35;;;1.77;;
34236;SDS011;20501;45.956;13.632;2024-01-16T13:23:34;6.32;;;1.60;;
34236;SDS011;20501;45.956;13.632;2024-01-16T13:26:00;5.78;;;2.17;;
34236;SDS011;20501;45.956;13.632;2024-01-16T13:28:28;3.50;;;1.52;;
34236;SDS011;20501;45.956;13.632;2024-01-16T13:30:54;4.10;;;1.83;;
34236;SDS011;20501;45.956;13.632;2024-01-16T13:33:21;2.22;;;1.67;;
34236;SDS011;20501;45.956;13.632;2024-01-16T13:35:48;5.18;;;2.40;;
34236;SDS011;20501;45.956;13.632;2024-01-16T13:38:14;3.70;;;1.75;;
34236;SDS011;20501;45.956;13.632;2024-01-16T13:40:44;6.10;;;2.47;;
34236;SDS011;20501;45.956;13.632;2024-01-16T13:43:10;4.95;;;2.08;;
34236;SDS011;20501;45.956;13.632;2024-01-16T13:45:36;4.15;;;1.45;;
34236;SDS011;20501;45.956;13.632;2024-01-16T13:48:03;3.90;;;1.85;;
34236;SDS011;20501;45.956;13.632;2024-01-16T13:50:30;4.28;;;2.05;;
34236;SDS011;20501;45.956;13.632;2024-01-16T13:52:56;3.08;;;1.77;;
34236;SDS011;20501;45.956;13.632;2024-01-16T13:55:21;5.72;;;1.80;;
34236;SDS011;20501;45.956;13.632;2024-01-16T13:57:47;6.93;;;3.72;;
34236;SDS011;20501;45.956;13.632;2024-01-16T14:00:13;7.38;;;4.30;;
34236;SDS011;20501;45.956;13.632;2024-01-16T14:02:40;4.95;;;2.53;;
34236;SDS011;20501;45.956;13.632;2024-01-16T14:05:10;7.65;;;3.25;;
34236;SDS011;20501;45.956;13.632;2024-01-16T14:07:37;3.70;;;1.95;;
34236;SDS011;20501;45.956;13.632;2024-01-16T14:10:04;4.45;;;1.90;;
34236;SDS011;20501;45.956;13.632;2024-01-16T14:12:35;3.38;;;1.85;;
34236;SDS011;20501;45.956;13.632;2024-01-16T14:15:00;3.35;;;1.60;;
34236;SDS011;20501;45.956;13.632;2024-01-16T14:17:29;2.70;;;1.88;;
34236;SDS011;20501;45.956;13.632;2024-01-16T14:19:55;4.10;;;2.08;;
34236;SDS011;20501;45.956;13.632;2024-01-16T14:22:20;5.22;;;2.45;;
34236;SDS011;20501;45.956;13.632;2024-01-16T14:24:46;5.43;;;3.00;;
34236;SDS011;20501;45.956;13.632;2024-01-16T14:27:12;10.68;;;2.88;;
34236;SDS011;20501;45.956;13.632;2024-01-16T14:29:38;3.30;;;2.13;;
34236;SDS011;20501;45.956;13.632;2024-01-16T14:32:04;4.97;;;2.78;;
34236;SDS011;20501;45.956;13.632;2024-01-16T14:34:30;2.95;;;1.90;;
34236;SDS011;20501;45.956;13.632;2024-01-16T14:36:56;2.20;;;1.80;;
34236;SDS011;20501;45.956;13.632;2024-01-16T14:39:21;5.43;;;2.40;;
34236;SDS011;20501;45.956;13.632;2024-01-16T14:41:49;4.05;;;2.65;;
34236;SDS011;20501;45.956;13.632;2024-01-16T14:44:15;7.45;;;3.30;;
34236;SDS011;20501;45.956;13.632;2024-01-16T14:46:41;6.75;;;3.65;;